Weather at Campo de Vuelo Avial

Public forecast

Using degrees Celsius for public forecast. Weather courtesy of forecast.io.

Closest aviation weather report (METAR) to Campo de Vuelo Avial

Closest report is Pirineus - la Seu d'Urgel Airport, 24.8 nm (45.9 km) NW. Retrieved 2020/09/19 14:30 UTC (28 minutes ago):

LESU 191430Z 20006KT 150V240 9999 FEW049 SCT070 23/12 Q1015

Closest aviation forecast (TAF) to Campo de Vuelo Avial

Closest forecast is Pirineus - la Seu d'Urgel Airport, 24.8 nm (45.9 km) NW. Retrieved 2020/09/19 15:00 UTC (0 seconds ago):

TAF LESU 191400Z 1915/2015 VRB03KT 9999 FEW010 BKN020 TX25/2014Z TN08/2005Z PROB40 TEMPO 1915/1916 VRB05G15KT 3000 TSRA FEW025CB BKN040